WetterOnline ( https://www.wetteronline.de )

Wetter aktuell Lieth

Aktuelles Wetter: St. Peter-Ording (11m)

6-stündlich | Neueste Meldungen
Ortszeit Temperatur Wetter
Mo, 17.02. 19:00 6.7° C bewölkt
Mo, 17.02. 13:00 8.3° C wolkig
Mo, 17.02. 7:00 6.7° C wolkig
Mo, 17.02. 1:00 6.9° C leicht bewölkt
So, 16.02. 19:00 6.0° C Regen
So, 16.02. 13:00 9.8° C Sprühregen
So, 16.02. 7:00 9.1° C bewölkt
So, 16.02. 1:00 9.0° C bedeckt
Ortszeit Temperatur Wetter
Di, 18.02. 0:40 6.7° C wolkig
Di, 18.02. 0:30 6.5° C wolkig
Di, 18.02. 0:20 6.5° C wolkig
Di, 18.02. 0:10 6.5° C bewölkt
Di, 18.02. 0:00 6.7° C bewölkt
Mo, 17.02. 23:50 6.7° C bewölkt
Mo, 17.02. 23:30 6.8° C bewölkt
Mo, 17.02. 23:00 6.8° C bedeckt
Mo, 17.02. 22:30 6.7° C bedeckt
Mo, 17.02. 22:00 6.7° C bewölkt
Mo, 17.02. 21:30 6.6° C bedeckt
Ortszeit Relative Feuchte Sichtweite
Mo, 17.02. 19:00 84% 11 km
Mo, 17.02. 13:00 74% 14 km
Mo, 17.02. 7:00 78% 9 km
Mo, 17.02. 1:00 85% 13 km
So, 16.02. 19:00 100% 4.5 km
So, 16.02. 13:00 95% 5.0 km
So, 16.02. 7:00 87% 19 km
So, 16.02. 1:00 75% 23 km
Ortszeit Relative Feuchte Sichtweite
Di, 18.02. 0:40 91% -
Di, 18.02. 0:30 91% 9 km
Di, 18.02. 0:20 91% -
Di, 18.02. 0:10 90% -
Di, 18.02. 0:00 81% 22 km
Mo, 17.02. 23:50 81% -
Mo, 17.02. 23:30 90% 10 km
Mo, 17.02. 23:00 90% 10 km
Mo, 17.02. 22:30 90% 10 km
Mo, 17.02. 22:00 90% 11 km
Mo, 17.02. 21:30 89% -
Ortszeit Niederschlagsmenge Niederschlagsart
Mo, 17.02. 19:00 0.1 l/m2 in 12 Std. Regen
Mo, 17.02. 13:00 0.0 l/m2 in 6 Std. -
Mo, 17.02. 7:00 5 l/m2 in 12 Std. Schnee, Regen
Mo, 17.02. 1:00 4 l/m2 in 6 Std. Regen
So, 16.02. 19:00 13 l/m2 in 12 Std. Regen
So, 16.02. 13:00 0.7 l/m2 in 6 Std. Regen
So, 16.02. 7:00 0.4 l/m2 in 12 Std. Regen
So, 16.02. 1:00 0.1 l/m2 in 6 Std. Regen
Ortszeit Niederschlagsmenge Niederschlagsart
Di, 18.02. 0:40 keine Meldung -
Di, 18.02. 0:30 0.0 l/m2 in 1 Std. -
Di, 18.02. 0:20 keine Meldung -
Di, 18.02. 0:10 keine Meldung -
Di, 18.02. 0:00 0.1 l/m2 in 1 Std. Sprühregen
Mo, 17.02. 23:50 keine Meldung -
Mo, 17.02. 23:30 0.1 l/m2 in 1 Std. Schnee
Mo, 17.02. 23:00 0.1 l/m2 in 1 Std. Sprühregen
Mo, 17.02. 22:30 0.1 l/m2 in 1 Std. Schnee
Mo, 17.02. 22:00 0.0 l/m2 in 1 Std. Regen
Mo, 17.02. 21:30 0.0 l/m2 in 1 Std. -
Ortszeit Stärke Spitze Richtung
km/h Bft. km/h Grad Sektor
Mo, 17.02. 19:00 47 6 79 240° SW
Mo, 17.02. 13:00 56 7 78 230° SW
Mo, 17.02. 7:00 58 7 94 240° SW
Mo, 17.02. 1:00 50 7 72 230° SW
So, 16.02. 19:00 18 3 65 280° W
So, 16.02. 13:00 46 6 69 210° SW
So, 16.02. 7:00 40 6 65 190° S
So, 16.02. 1:00 48 6 70 190° S
Ortszeit Stärke Spitze Richtung
km/h Bft. km/h Grad Sektor
Di, 18.02. 0:40 36 5 - 240° SW
Di, 18.02. 0:30 32 5 54 230° SW
Di, 18.02. 0:20 32 5 - 230° SW
Di, 18.02. 0:10 33 5 - 230° SW
Di, 18.02. 0:00 43 6 58 250° W
Mo, 17.02. 23:50 43 6 - 250° W
Mo, 17.02. 23:30 40 6 50 240° SW
Mo, 17.02. 23:00 36 5 47 240° SW
Mo, 17.02. 22:30 36 5 47 230° SW
Mo, 17.02. 22:00 35 5 50 240° SW
Mo, 17.02. 21:30 35 5 50 240° SW
Ortszeit Untergrenze Bedeckung Gattung
total tief tief mittel hoch
Mo, 17.02. 19:00 600 m 7/8 7/8 - - -
Mo, 17.02. 13:00 870 m 6/8 6/8 - - -
Mo, 17.02. 7:00 900 m 6/8 6/8 - - -
Mo, 17.02. 1:00 6300 m 2/8 2/8 - - -
So, 16.02. 19:00 360 m 7/8 7/8 - - -
So, 16.02. 13:00 540 m 7/8 8/8 - - -
So, 16.02. 7:00 1020 m 7/8 7/8 - - -
So, 16.02. 1:00 960 m 8/8 8/8 - - -
Ortszeit Bedeckungsgrad in Achtel und Wolkenuntergrenze
Di, 18.02. 0:40 6(1500m)
Di, 18.02. 0:30 1(1200m) 5(1500m)
Di, 18.02. 0:20 1(1200m) 5(1500m)
Di, 18.02. 0:10 2(1500m) 6(1500m) 7(2100m)
Di, 18.02. 0:00 4(1500m) 6(1800m) 7(2100m)
Mo, 17.02. 23:50 4(1500m) 6(1800m) 7(2100m)
Mo, 17.02. 23:30 1(1500m) 7(2100m) 7(2100m)
Mo, 17.02. 23:00 1(1290m) 8(2100m)
Mo, 17.02. 22:30 3(1110m) 4(1440m) 8(1800m)
Mo, 17.02. 22:00 7(1500m)
Mo, 17.02. 21:30 8(1470m)
Ortszeit Luftdruck NN (hPa) Tendenz (hPa in 3 Std.)
Mo, 17.02. 19:00 1006 + 1,0
Mo, 17.02. 13:00 1005 + 1,1
Mo, 17.02. 7:00 1002 + 3,4
Mo, 17.02. 1:00 997 + 3,7
So, 16.02. 19:00 992 - 1,5
So, 16.02. 13:00 993 - 0,3
So, 16.02. 7:00 996 - 4,3
So, 16.02. 1:00 1001 - 2,9
Ortszeit Luftdruck NN (hPa) Tendenz (hPa in 3 Std.)
Di, 18.02. 0:40 1008 keine Meldung
Di, 18.02. 0:30 1008 + 0,8
Di, 18.02. 0:20 1008 keine Meldung
Di, 18.02. 0:10 1008 keine Meldung
Di, 18.02. 0:00 1007 + 0,6
Mo, 17.02. 23:50 1007 keine Meldung
Mo, 17.02. 23:30 1007 + 0,4
Mo, 17.02. 23:00 1007 + 0,6
Mo, 17.02. 22:30 1007 + 0,5
Mo, 17.02. 22:00 1007 + 0,9
Mo, 17.02. 21:30 1007 + 1,0
Ortszeit Schneehöhe (cm)
Mo, 17.02. 19:00 0
Mo, 17.02. 13:00 0
Mo, 17.02. 7:00 0
Mo, 17.02. 1:00 0
So, 16.02. 19:00 0
So, 16.02. 13:00 0
So, 16.02. 7:00 0
So, 16.02. 1:00 0
Ortszeit Schneehöhe (cm)
Di, 18.02. 0:40 0
Di, 18.02. 0:30 0
Di, 18.02. 0:20 0
Di, 18.02. 0:10 0
Di, 18.02. 0:00 0
Mo, 17.02. 23:50 0
Mo, 17.02. 23:30 0
Mo, 17.02. 23:00 0
Mo, 17.02. 22:30 0
Mo, 17.02. 22:00 0
Mo, 17.02. 21:30 0
Link zu dieser Seite / Seite empfehlen

Das Wetter in ...